sensor_id;sensor_type;location;lat;lon;timestamp;P1;durP1;ratioP1;P2;durP2;ratioP2
19312;SDS011;9791;50.820;4.406;2023-07-16T00:02:12;7.90;;;2.22;;
19312;SDS011;9791;50.820;4.406;2023-07-16T00:04:38;6.85;;;2.20;;
19312;SDS011;9791;50.820;4.406;2023-07-16T00:07:05;5.60;;;2.03;;
19312;SDS011;9791;50.820;4.406;2023-07-16T00:09:31;6.53;;;1.90;;
19312;SDS011;9791;50.820;4.406;2023-07-16T00:11:57;7.22;;;2.40;;
19312;SDS011;9791;50.820;4.406;2023-07-16T00:14:23;8.70;;;2.60;;
19312;SDS011;9791;50.820;4.406;2023-07-16T00:16:52;7.82;;;2.22;;
19312;SDS011;9791;50.820;4.406;2023-07-16T00:19:18;8.55;;;2.20;;
19312;SDS011;9791;50.820;4.406;2023-07-16T00:21:44;7.95;;;2.47;;
19312;SDS011;9791;50.820;4.406;2023-07-16T00:24:10;9.57;;;4.00;;
19312;SDS011;9791;50.820;4.406;2023-07-16T00:26:36;6.70;;;2.20;;
19312;SDS011;9791;50.820;4.406;2023-07-16T00:29:02;10.18;;;2.60;;
19312;SDS011;9791;50.820;4.406;2023-07-16T00:31:28;6.90;;;2.10;;
19312;SDS011;9791;50.820;4.406;2023-07-16T00:33:54;7.38;;;2.10;;
19312;SDS011;9791;50.820;4.406;2023-07-16T00:36:20;10.07;;;2.22;;
19312;SDS011;9791;50.820;4.406;2023-07-16T00:38:46;9.23;;;3.30;;
19312;SDS011;9791;50.820;4.406;2023-07-16T00:41:13;10.82;;;2.45;;
19312;SDS011;9791;50.820;4.406;2023-07-16T00:43:39;10.52;;;2.53;;
19312;SDS011;9791;50.820;4.406;2023-07-16T00:46:05;9.85;;;2.15;;
19312;SDS011;9791;50.820;4.406;2023-07-16T00:48:32;9.15;;;2.67;;
19312;SDS011;9791;50.820;4.406;2023-07-16T00:50:58;13.82;;;2.53;;
19312;SDS011;9791;50.820;4.406;2023-07-16T00:53:26;10.45;;;2.45;;
19312;SDS011;9791;50.820;4.406;2023-07-16T00:55:52;13.68;;;2.42;;
19312;SDS011;9791;50.820;4.406;2023-07-16T00:58:18;8.35;;;2.40;;
19312;SDS011;9791;50.820;4.406;2023-07-16T01:00:44;10.38;;;2.63;;
19312;SDS011;9791;50.820;4.406;2023-07-16T01:03:12;7.35;;;2.83;;
19312;SDS011;9791;50.820;4.406;2023-07-16T01:08:10;7.40;;;2.33;;
19312;SDS011;9791;50.820;4.406;2023-07-16T01:10:39;9.57;;;2.38;;
19312;SDS011;9791;50.820;4.406;2023-07-16T01:13:06;10.98;;;2.67;;
19312;SDS011;9791;50.820;4.406;2023-07-16T01:15:32;10.07;;;2.40;;
19312;SDS011;9791;50.820;4.406;2023-07-16T01:17:58;13.35;;;2.40;;
19312;SDS011;9791;50.820;4.406;2023-07-16T01:20:25;9.05;;;3.05;;
19312;SDS011;9791;50.820;4.406;2023-07-16T01:25:39;9.15;;;2.92;;
19312;SDS011;9791;50.820;4.406;2023-07-16T01:30:36;6.95;;;2.65;;
19312;SDS011;9791;50.820;4.406;2023-07-16T01:33:03;8.13;;;2.70;;
19312;SDS011;9791;50.820;4.406;2023-07-16T01:35:30;7.68;;;3.00;;
19312;SDS011;9791;50.820;4.406;2023-07-16T01:37:57;9.55;;;3.20;;
19312;SDS011;9791;50.820;4.406;2023-07-16T01:40:23;5.80;;;1.98;;
19312;SDS011;9791;50.820;4.406;2023-07-16T01:42:49;8.95;;;2.63;;
19312;SDS011;9791;50.820;4.406;2023-07-16T01:45:15;9.07;;;2.70;;
19312;SDS011;9791;50.820;4.406;2023-07-16T01:47:55;10.30;;;3.05;;
19312;SDS011;9791;50.820;4.406;2023-07-16T01:50:25;8.13;;;2.88;;
19312;SDS011;9791;50.820;4.406;2023-07-16T01:52:51;8.95;;;3.10;;
19312;SDS011;9791;50.820;4.406;2023-07-16T01:55:17;13.63;;;3.25;;
19312;SDS011;9791;50.820;4.406;2023-07-16T01:57:43;11.68;;;4.50;;
19312;SDS011;9791;50.820;4.406;2023-07-16T02:00:09;9.50;;;2.95;;
19312;SDS011;9791;50.820;4.406;2023-07-16T02:02:36;7.72;;;2.53;;
19312;SDS011;9791;50.820;4.406;2023-07-16T02:05:03;9.38;;;3.00;;
19312;SDS011;9791;50.820;4.406;2023-07-16T02:07:29;9.63;;;2.50;;
19312;SDS011;9791;50.820;4.406;2023-07-16T02:09:55;9.70;;;3.00;;
19312;SDS011;9791;50.820;4.406;2023-07-16T02:12:21;10.18;;;2.88;;
19312;SDS011;9791;50.820;4.406;2023-07-16T02:14:48;8.55;;;2.90;;
19312;SDS011;9791;50.820;4.406;2023-07-16T02:17:14;13.75;;;3.80;;
19312;SDS011;9791;50.820;4.406;2023-07-16T02:19:40;13.02;;;3.40;;
19312;SDS011;9791;50.820;4.406;2023-07-16T02:22:07;8.40;;;3.20;;
19312;SDS011;9791;50.820;4.406;2023-07-16T02:24:33;11.35;;;3.50;;
19312;SDS011;9791;50.820;4.406;2023-07-16T02:27:00;8.27;;;3.30;;
19312;SDS011;9791;50.820;4.406;2023-07-16T02:29:26;9.80;;;3.53;;
19312;SDS011;9791;50.820;4.406;2023-07-16T02:31:52;10.43;;;3.67;;
19312;SDS011;9791;50.820;4.406;2023-07-16T02:34:18;16.17;;;5.30;;
19312;SDS011;9791;50.820;4.406;2023-07-16T02:36:44;10.52;;;3.67;;
19312;SDS011;9791;50.820;4.406;2023-07-16T02:39:10;7.97;;;3.70;;
19312;SDS011;9791;50.820;4.406;2023-07-16T02:41:36;9.30;;;3.72;;
19312;SDS011;9791;50.820;4.406;2023-07-16T02:44:04;8.68;;;4.38;;
19312;SDS011;9791;50.820;4.406;2023-07-16T02:46:30;16.05;;;5.40;;
19312;SDS011;9791;50.820;4.406;2023-07-16T02:48:56;11.93;;;4.03;;
19312;SDS011;9791;50.820;4.406;2023-07-16T02:51:22;10.98;;;4.50;;
19312;SDS011;9791;50.820;4.406;2023-07-16T02:53:48;11.88;;;5.03;;
19312;SDS011;9791;50.820;4.406;2023-07-16T02:56:15;10.98;;;4.55;;
19312;SDS011;9791;50.820;4.406;2023-07-16T02:58:41;10.65;;;3.80;;
19312;SDS011;9791;50.820;4.406;2023-07-16T03:01:09;8.68;;;4.07;;
19312;SDS011;9791;50.820;4.406;2023-07-16T03:03:35;11.05;;;3.95;;
19312;SDS011;9791;50.820;4.406;2023-07-16T03:06:01;17.10;;;4.28;;
19312;SDS011;9791;50.820;4.406;2023-07-16T03:08:27;9.10;;;3.90;;
19312;SDS011;9791;50.820;4.406;2023-07-16T03:10:55;13.68;;;4.05;;
19312;SDS011;9791;50.820;4.406;2023-07-16T03:13:21;9.48;;;4.22;;
19312;SDS011;9791;50.820;4.406;2023-07-16T03:15:47;9.32;;;3.60;;
19312;SDS011;9791;50.820;4.406;2023-07-16T03:18:14;10.00;;;3.72;;
19312;SDS011;9791;50.820;4.406;2023-07-16T03:20:40;10.02;;;4.32;;
19312;SDS011;9791;50.820;4.406;2023-07-16T03:23:06;16.77;;;4.65;;
19312;SDS011;9791;50.820;4.406;2023-07-16T03:25:32;12.63;;;4.38;;
19312;SDS011;9791;50.820;4.406;2023-07-16T03:27:59;11.93;;;4.32;;
19312;SDS011;9791;50.820;4.406;2023-07-16T03:30:25;9.10;;;3.35;;
19312;SDS011;9791;50.820;4.406;2023-07-16T03:32:51;13.48;;;3.85;;
19312;SDS011;9791;50.820;4.406;2023-07-16T03:35:17;12.95;;;4.53;;
19312;SDS011;9791;50.820;4.406;2023-07-16T03:37:43;13.82;;;4.78;;
19312;SDS011;9791;50.820;4.406;2023-07-16T03:40:16;13.65;;;4.90;;
19312;SDS011;9791;50.820;4.406;2023-07-16T03:42:42;7.38;;;3.75;;
19312;SDS011;9791;50.820;4.406;2023-07-16T03:45:09;12.10;;;4.15;;
19312;SDS011;9791;50.820;4.406;2023-07-16T03:47:35;13.50;;;4.30;;
19312;SDS011;9791;50.820;4.406;2023-07-16T03:50:01;11.73;;;4.07;;
19312;SDS011;9791;50.820;4.406;2023-07-16T03:52:29;8.68;;;4.13;;
19312;SDS011;9791;50.820;4.406;2023-07-16T03:54:55;13.77;;;4.70;;
19312;SDS011;9791;50.820;4.406;2023-07-16T03:57:21;9.30;;;4.35;;
19312;SDS011;9791;50.820;4.406;2023-07-16T03:59:47;10.73;;;3.92;;
19312;SDS011;9791;50.820;4.406;2023-07-16T04:02:13;11.18;;;4.10;;
19312;SDS011;9791;50.820;4.406;2023-07-16T04:04:39;9.45;;;4.85;;
19312;SDS011;9791;50.820;4.406;2023-07-16T04:07:05;11.52;;;4.22;;
19312;SDS011;9791;50.820;4.406;2023-07-16T04:09:31;14.07;;;4.82;;
19312;SDS011;9791;50.820;4.406;2023-07-16T04:11:57;10.98;;;4.68;;
19312;SDS011;9791;50.820;4.406;2023-07-16T04:14:24;10.55;;;4.70;;
19312;SDS011;9791;50.820;4.406;2023-07-16T04:16:50;14.15;;;4.88;;
19312;SDS011;9791;50.820;4.406;2023-07-16T04:19:16;11.90;;;4.93;;
19312;SDS011;9791;50.820;4.406;2023-07-16T04:21:42;13.10;;;5.18;;
19312;SDS011;9791;50.820;4.406;2023-07-16T04:24:08;13.05;;;5.10;;
19312;SDS011;9791;50.820;4.406;2023-07-16T04:26:34;11.35;;;4.57;;
19312;SDS011;9791;50.820;4.406;2023-07-16T04:29:00;9.75;;;4.47;;
19312;SDS011;9791;50.820;4.406;2023-07-16T04:31:27;9.77;;;4.63;;
19312;SDS011;9791;50.820;4.406;2023-07-16T04:33:53;13.27;;;4.57;;
19312;SDS011;9791;50.820;4.406;2023-07-16T04:36:19;10.10;;;4.45;;
19312;SDS011;9791;50.820;4.406;2023-07-16T04:38:45;9.70;;;4.45;;
19312;SDS011;9791;50.820;4.406;2023-07-16T04:41:11;14.70;;;5.20;;
19312;SDS011;9791;50.820;4.406;2023-07-16T04:43:38;18.83;;;5.63;;
19312;SDS011;9791;50.820;4.406;2023-07-16T04:46:04;9.85;;;4.47;;
19312;SDS011;9791;50.820;4.406;2023-07-16T04:48:30;12.35;;;5.18;;
19312;SDS011;9791;50.820;4.406;2023-07-16T04:50:56;16.08;;;5.60;;
19312;SDS011;9791;50.820;4.406;2023-07-16T04:53:22;13.20;;;4.85;;
19312;SDS011;9791;50.820;4.406;2023-07-16T04:55:48;11.70;;;5.60;;
19312;SDS011;9791;50.820;4.406;2023-07-16T04:58:14;12.48;;;5.18;;
19312;SDS011;9791;50.820;4.406;2023-07-16T05:00:40;13.48;;;5.65;;
19312;SDS011;9791;50.820;4.406;2023-07-16T05:03:06;18.83;;;5.38;;
19312;SDS011;9791;50.820;4.406;2023-07-16T05:05:33;12.70;;;5.40;;
19312;SDS011;9791;50.820;4.406;2023-07-16T05:07:59;12.60;;;5.50;;
19312;SDS011;9791;50.820;4.406;2023-07-16T05:10:26;11.50;;;6.65;;
19312;SDS011;9791;50.820;4.406;2023-07-16T05:12:52;14.60;;;5.75;;
19312;SDS011;9791;50.820;4.406;2023-07-16T05:15:18;10.07;;;5.03;;
19312;SDS011;9791;50.820;4.406;2023-07-16T05:17:44;14.13;;;5.88;;
19312;SDS011;9791;50.820;4.406;2023-07-16T05:20:10;11.38;;;5.68;;
19312;SDS011;9791;50.820;4.406;2023-07-16T05:22:36;13.18;;;5.45;;
19312;SDS011;9791;50.820;4.406;2023-07-16T05:25:02;12.27;;;5.13;;
19312;SDS011;9791;50.820;4.406;2023-07-16T05:27:28;11.52;;;5.90;;
19312;SDS011;9791;50.820;4.406;2023-07-16T05:29:54;11.02;;;4.90;;
19312;SDS011;9791;50.820;4.406;2023-07-16T05:32:21;17.45;;;5.45;;
19312;SDS011;9791;50.820;4.406;2023-07-16T05:34:47;11.48;;;5.63;;
19312;SDS011;9791;50.820;4.406;2023-07-16T05:37:13;13.57;;;5.78;;
19312;SDS011;9791;50.820;4.406;2023-07-16T05:39:39;11.93;;;5.47;;
19312;SDS011;9791;50.820;4.406;2023-07-16T05:42:06;13.00;;;6.22;;
19312;SDS011;9791;50.820;4.406;2023-07-16T05:44:32;12.90;;;5.53;;
19312;SDS011;9791;50.820;4.406;2023-07-16T05:46:59;13.77;;;6.03;;
19312;SDS011;9791;50.820;4.406;2023-07-16T05:49:25;14.10;;;5.82;;
19312;SDS011;9791;50.820;4.406;2023-07-16T05:51:52;15.25;;;5.80;;
19312;SDS011;9791;50.820;4.406;2023-07-16T05:54:19;12.68;;;6.43;;
19312;SDS011;9791;50.820;4.406;2023-07-16T05:56:45;11.68;;;5.13;;
19312;SDS011;9791;50.820;4.406;2023-07-16T05:59:11;13.02;;;5.57;;
19312;SDS011;9791;50.820;4.406;2023-07-16T06:01:37;12.98;;;5.53;;
19312;SDS011;9791;50.820;4.406;2023-07-16T06:04:03;9.98;;;5.32;;
19312;SDS011;9791;50.820;4.406;2023-07-16T06:06:30;10.25;;;5.20;;
19312;SDS011;9791;50.820;4.406;2023-07-16T06:08:56;14.13;;;5.72;;
19312;SDS011;9791;50.820;4.406;2023-07-16T06:11:24;15.82;;;6.10;;
19312;SDS011;9791;50.820;4.406;2023-07-16T06:13:52;12.32;;;5.72;;
19312;SDS011;9791;50.820;4.406;2023-07-16T06:16:18;11.77;;;5.43;;
19312;SDS011;9791;50.820;4.406;2023-07-16T06:18:44;11.98;;;5.88;;
19312;SDS011;9791;50.820;4.406;2023-07-16T06:21:10;13.93;;;5.80;;
19312;SDS011;9791;50.820;4.406;2023-07-16T06:23:36;11.18;;;5.75;;
19312;SDS011;9791;50.820;4.406;2023-07-16T06:26:02;12.15;;;5.43;;
19312;SDS011;9791;50.820;4.406;2023-07-16T06:28:28;13.07;;;4.97;;
19312;SDS011;9791;50.820;4.406;2023-07-16T06:30:54;14.35;;;5.18;;
19312;SDS011;9791;50.820;4.406;2023-07-16T06:33:20;12.30;;;5.03;;
19312;SDS011;9791;50.820;4.406;2023-07-16T06:35:46;8.68;;;4.47;;
19312;SDS011;9791;50.820;4.406;2023-07-16T06:38:13;11.40;;;3.85;;
19312;SDS011;9791;50.820;4.406;2023-07-16T06:40:40;8.68;;;4.55;;
19312;SDS011;9791;50.820;4.406;2023-07-16T06:43:06;9.02;;;4.15;;
19312;SDS011;9791;50.820;4.406;2023-07-16T06:45:32;8.73;;;3.80;;
19312;SDS011;9791;50.820;4.406;2023-07-16T06:47:58;9.90;;;4.32;;
19312;SDS011;9791;50.820;4.406;2023-07-16T06:50:24;9.07;;;4.60;;
19312;SDS011;9791;50.820;4.406;2023-07-16T06:52:50;9.80;;;4.40;;
19312;SDS011;9791;50.820;4.406;2023-07-16T06:55:16;11.65;;;4.70;;
19312;SDS011;9791;50.820;4.406;2023-07-16T06:57:42;9.85;;;4.07;;
19312;SDS011;9791;50.820;4.406;2023-07-16T07:00:08;13.65;;;4.70;;
19312;SDS011;9791;50.820;4.406;2023-07-16T07:02:36;9.77;;;3.90;;
19312;SDS011;9791;50.820;4.406;2023-07-16T07:05:02;9.48;;;4.15;;
19312;SDS011;9791;50.820;4.406;2023-07-16T07:07:28;11.55;;;4.05;;
19312;SDS011;9791;50.820;4.406;2023-07-16T07:09:54;12.07;;;4.35;;
19312;SDS011;9791;50.820;4.406;2023-07-16T07:12:20;10.63;;;3.97;;
19312;SDS011;9791;50.820;4.406;2023-07-16T07:14:46;10.75;;;3.85;;
19312;SDS011;9791;50.820;4.406;2023-07-16T07:17:13;7.97;;;4.07;;
19312;SDS011;9791;50.820;4.406;2023-07-16T07:19:39;11.50;;;3.88;;
19312;SDS011;9791;50.820;4.406;2023-07-16T07:22:05;8.63;;;4.25;;
19312;SDS011;9791;50.820;4.406;2023-07-16T07:24:31;10.48;;;4.35;;
19312;SDS011;9791;50.820;4.406;2023-07-16T07:26:57;8.98;;;4.10;;
19312;SDS011;9791;50.820;4.406;2023-07-16T07:29:23;11.60;;;4.25;;
19312;SDS011;9791;50.820;4.406;2023-07-16T07:31:50;9.57;;;4.40;;
19312;SDS011;9791;50.820;4.406;2023-07-16T07:34:16;8.25;;;3.95;;
19312;SDS011;9791;50.820;4.406;2023-07-16T07:36:42;8.23;;;4.22;;
19312;SDS011;9791;50.820;4.406;2023-07-16T07:39:08;9.23;;;4.43;;
19312;SDS011;9791;50.820;4.406;2023-07-16T07:41:34;10.10;;;4.68;;
19312;SDS011;9791;50.820;4.406;2023-07-16T07:44:00;9.07;;;4.05;;
19312;SDS011;9791;50.820;4.406;2023-07-16T07:46:26;11.50;;;4.05;;
19312;SDS011;9791;50.820;4.406;2023-07-16T07:48:52;8.15;;;4.07;;
19312;SDS011;9791;50.820;4.406;2023-07-16T07:51:19;10.50;;;3.97;;
19312;SDS011;9791;50.820;4.406;2023-07-16T07:53:45;8.63;;;3.63;;
19312;SDS011;9791;50.820;4.406;2023-07-16T07:56:11;9.93;;;4.38;;
19312;SDS011;9791;50.820;4.406;2023-07-16T07:58:37;8.65;;;4.22;;
19312;SDS011;9791;50.820;4.406;2023-07-16T08:01:06;12.30;;;4.40;;
19312;SDS011;9791;50.820;4.406;2023-07-16T08:03:33;8.27;;;3.80;;
19312;SDS011;9791;50.820;4.406;2023-07-16T08:06:00;11.07;;;4.60;;
19312;SDS011;9791;50.820;4.406;2023-07-16T08:08:26;8.32;;;4.22;;
19312;SDS011;9791;50.820;4.406;2023-07-16T08:10:52;10.13;;;4.07;;
19312;SDS011;9791;50.820;4.406;2023-07-16T08:13:18;9.38;;;4.10;;
19312;SDS011;9791;50.820;4.406;2023-07-16T08:15:44;6.97;;;3.58;;
19312;SDS011;9791;50.820;4.406;2023-07-16T08:18:10;6.50;;;3.55;;
19312;SDS011;9791;50.820;4.406;2023-07-16T08:20:36;9.45;;;3.70;;
19312;SDS011;9791;50.820;4.406;2023-07-16T08:23:02;8.80;;;4.47;;
19312;SDS011;9791;50.820;4.406;2023-07-16T08:25:28;9.15;;;3.85;;
19312;SDS011;9791;50.820;4.406;2023-07-16T08:27:54;6.82;;;3.38;;
19312;SDS011;9791;50.820;4.406;2023-07-16T08:30:20;10.35;;;4.05;;
19312;SDS011;9791;50.820;4.406;2023-07-16T08:32:47;8.63;;;3.58;;
19312;SDS011;9791;50.820;4.406;2023-07-16T08:35:15;8.20;;;4.03;;
19312;SDS011;9791;50.820;4.406;2023-07-16T08:37:41;10.18;;;3.63;;
19312;SDS011;9791;50.820;4.406;2023-07-16T08:40:07;11.40;;;4.00;;
19312;SDS011;9791;50.820;4.406;2023-07-16T08:42:36;10.07;;;4.10;;
19312;SDS011;9791;50.820;4.406;2023-07-16T08:45:03;8.80;;;4.00;;
19312;SDS011;9791;50.820;4.406;2023-07-16T08:47:29;8.05;;;3.50;;
19312;SDS011;9791;50.820;4.406;2023-07-16T08:49:56;7.47;;;3.75;;
19312;SDS011;9791;50.820;4.406;2023-07-16T08:52:23;8.90;;;3.80;;
19312;SDS011;9791;50.820;4.406;2023-07-16T08:54:49;7.80;;;3.70;;
19312;SDS011;9791;50.820;4.406;2023-07-16T08:57:15;7.72;;;3.63;;
19312;SDS011;9791;50.820;4.406;2023-07-16T08:59:42;7.13;;;3.70;;
19312;SDS011;9791;50.820;4.406;2023-07-16T09:02:08;11.30;;;3.90;;
19312;SDS011;9791;50.820;4.406;2023-07-16T09:04:34;11.77;;;4.43;;
19312;SDS011;9791;50.820;4.406;2023-07-16T09:07:00;10.60;;;4.15;;
19312;SDS011;9791;50.820;4.406;2023-07-16T09:09:26;6.90;;;4.15;;
19312;SDS011;9791;50.820;4.406;2023-07-16T09:11:53;9.70;;;4.32;;
19312;SDS011;9791;50.820;4.406;2023-07-16T09:14:19;9.48;;;5.00;;
19312;SDS011;9791;50.820;4.406;2023-07-16T09:16:51;9.07;;;3.95;;
19312;SDS011;9791;50.820;4.406;2023-07-16T09:19:18;10.45;;;4.00;;
19312;SDS011;9791;50.820;4.406;2023-07-16T09:21:48;9.32;;;4.00;;
19312;SDS011;9791;50.820;4.406;2023-07-16T09:24:14;8.13;;;3.33;;
19312;SDS011;9791;50.820;4.406;2023-07-16T09:26:50;8.50;;;4.00;;
19312;SDS011;9791;50.820;4.406;2023-07-16T09:29:16;11.15;;;3.88;;
19312;SDS011;9791;50.820;4.406;2023-07-16T09:31:55;7.10;;;3.92;;
19312;SDS011;9791;50.820;4.406;2023-07-16T09:34:22;9.82;;;4.35;;
19312;SDS011;9791;50.820;4.406;2023-07-16T09:36:48;11.68;;;4.40;;
19312;SDS011;9791;50.820;4.406;2023-07-16T09:39:17;8.73;;;4.00;;
19312;SDS011;9791;50.820;4.406;2023-07-16T09:41:49;9.02;;;4.10;;
19312;SDS011;9791;50.820;4.406;2023-07-16T09:44:16;12.50;;;4.47;;
19312;SDS011;9791;50.820;4.406;2023-07-16T09:46:42;8.32;;;4.38;;
19312;SDS011;9791;50.820;4.406;2023-07-16T09:49:09;8.88;;;3.78;;
19312;SDS011;9791;50.820;4.406;2023-07-16T09:51:36;8.73;;;3.97;;
19312;SDS011;9791;50.820;4.406;2023-07-16T09:54:03;8.07;;;3.83;;
19312;SDS011;9791;50.820;4.406;2023-07-16T09:56:34;10.27;;;4.28;;
19312;SDS011;9791;50.820;4.406;2023-07-16T09:59:01;8.30;;;4.10;;
19312;SDS011;9791;50.820;4.406;2023-07-16T10:01:28;6.93;;;3.00;;
19312;SDS011;9791;50.820;4.406;2023-07-16T10:03:55;9.23;;;3.60;;
19312;SDS011;9791;50.820;4.406;2023-07-16T10:06:21;9.73;;;3.70;;
19312;SDS011;9791;50.820;4.406;2023-07-16T10:08:50;10.32;;;3.55;;
19312;SDS011;9791;50.820;4.406;2023-07-16T10:11:16;9.85;;;4.28;;
19312;SDS011;9791;50.820;4.406;2023-07-16T10:13:42;5.97;;;3.90;;
19312;SDS011;9791;50.820;4.406;2023-07-16T10:16:10;7.50;;;3.55;;
19312;SDS011;9791;50.820;4.406;2023-07-16T10:18:50;9.45;;;3.60;;
19312;SDS011;9791;50.820;4.406;2023-07-16T10:21:22;11.00;;;3.92;;
19312;SDS011;9791;50.820;4.406;2023-07-16T10:23:56;11.60;;;4.28;;
19312;SDS011;9791;50.820;4.406;2023-07-16T10:26:25;7.50;;;3.33;;
19312;SDS011;9791;50.820;4.406;2023-07-16T10:28:51;10.48;;;4.10;;
19312;SDS011;9791;50.820;4.406;2023-07-16T10:31:19;7.20;;;3.88;;
19312;SDS011;9791;50.820;4.406;2023-07-16T10:33:55;8.43;;;3.78;;
19312;SDS011;9791;50.820;4.406;2023-07-16T10:36:21;11.52;;;4.10;;
19312;SDS011;9791;50.820;4.406;2023-07-16T10:38:47;9.77;;;3.95;;
19312;SDS011;9791;50.820;4.406;2023-07-16T10:41:13;12.50;;;4.05;;
19312;SDS011;9791;50.820;4.406;2023-07-16T10:43:40;8.80;;;4.22;;
19312;SDS011;9791;50.820;4.406;2023-07-16T10:46:06;9.88;;;4.85;;
19312;SDS011;9791;50.820;4.406;2023-07-16T10:48:32;12.68;;;4.65;;
19312;SDS011;9791;50.820;4.406;2023-07-16T10:50:58;9.95;;;4.10;;
19312;SDS011;9791;50.820;4.406;2023-07-16T10:53:24;10.23;;;4.50;;
19312;SDS011;9791;50.820;4.406;2023-07-16T10:55:53;7.43;;;3.55;;
19312;SDS011;9791;50.820;4.406;2023-07-16T10:58:19;9.25;;;4.05;;
19312;SDS011;9791;50.820;4.406;2023-07-16T11:00:45;11.52;;;3.50;;
19312;SDS011;9791;50.820;4.406;2023-07-16T11:03:14;8.75;;;3.92;;
19312;SDS011;9791;50.820;4.406;2023-07-16T11:05:44;10.85;;;3.65;;
19312;SDS011;9791;50.820;4.406;2023-07-16T11:08:11;8.73;;;3.88;;
19312;SDS011;9791;50.820;4.406;2023-07-16T11:10:52;8.32;;;3.60;;
19312;SDS011;9791;50.820;4.406;2023-07-16T11:13:18;6.70;;;3.35;;
19312;SDS011;9791;50.820;4.406;2023-07-16T11:15:45;7.90;;;3.13;;
19312;SDS011;9791;50.820;4.406;2023-07-16T11:18:11;8.30;;;3.72;;
19312;SDS011;9791;50.820;4.406;2023-07-16T11:20:37;9.60;;;3.53;;
19312;SDS011;9791;50.820;4.406;2023-07-16T11:23:03;5.80;;;3.17;;
19312;SDS011;9791;50.820;4.406;2023-07-16T11:25:29;8.60;;;4.20;;
19312;SDS011;9791;50.820;4.406;2023-07-16T11:27:55;8.60;;;3.47;;
19312;SDS011;9791;50.820;4.406;2023-07-16T11:30:22;8.38;;;3.80;;
19312;SDS011;9791;50.820;4.406;2023-07-16T11:32:48;8.32;;;3.60;;
19312;SDS011;9791;50.820;4.406;2023-07-16T11:35:15;7.03;;;3.20;;
19312;SDS011;9791;50.820;4.406;2023-07-16T11:37:42;8.57;;;3.10;;
19312;SDS011;9791;50.820;4.406;2023-07-16T11:40:08;7.95;;;3.30;;
19312;SDS011;9791;50.820;4.406;2023-07-16T11:42:36;9.05;;;3.92;;
19312;SDS011;9791;50.820;4.406;2023-07-16T11:45:02;6.70;;;3.50;;
19312;SDS011;9791;50.820;4.406;2023-07-16T11:47:29;6.72;;;3.40;;
19312;SDS011;9791;50.820;4.406;2023-07-16T11:49:55;8.43;;;3.70;;
19312;SDS011;9791;50.820;4.406;2023-07-16T11:52:26;10.20;;;4.10;;
19312;SDS011;9791;50.820;4.406;2023-07-16T11:54:52;8.13;;;3.55;;
19312;SDS011;9791;50.820;4.406;2023-07-16T11:57:18;8.85;;;3.38;;
19312;SDS011;9791;50.820;4.406;2023-07-16T11:59:45;10.57;;;3.30;;
19312;SDS011;9791;50.820;4.406;2023-07-16T12:02:12;7.63;;;3.42;;
19312;SDS011;9791;50.820;4.406;2023-07-16T12:04:39;7.93;;;3.17;;
19312;SDS011;9791;50.820;4.406;2023-07-16T12:07:05;8.07;;;3.70;;
19312;SDS011;9791;50.820;4.406;2023-07-16T12:09:31;8.48;;;3.63;;
19312;SDS011;9791;50.820;4.406;2023-07-16T12:11:57;9.68;;;3.60;;
19312;SDS011;9791;50.820;4.406;2023-07-16T12:14:23;8.55;;;3.53;;
19312;SDS011;9791;50.820;4.406;2023-07-16T12:16:49;8.43;;;3.40;;
19312;SDS011;9791;50.820;4.406;2023-07-16T12:19:15;7.35;;;3.00;;
19312;SDS011;9791;50.820;4.406;2023-07-16T12:21:41;8.70;;;3.13;;
19312;SDS011;9791;50.820;4.406;2023-07-16T12:24:07;8.85;;;3.10;;
19312;SDS011;9791;50.820;4.406;2023-07-16T12:26:33;8.95;;;2.72;;
19312;SDS011;9791;50.820;4.406;2023-07-16T12:29:00;6.85;;;3.03;;
19312;SDS011;9791;50.820;4.406;2023-07-16T12:31:29;7.50;;;3.45;;
19312;SDS011;9791;50.820;4.406;2023-07-16T12:33:56;9.40;;;3.10;;
19312;SDS011;9791;50.820;4.406;2023-07-16T12:36:22;9.43;;;3.60;;
19312;SDS011;9791;50.820;4.406;2023-07-16T12:38:48;6.80;;;2.75;;
19312;SDS011;9791;50.820;4.406;2023-07-16T12:41:14;7.82;;;3.38;;
19312;SDS011;9791;50.820;4.406;2023-07-16T12:43:41;6.65;;;3.20;;
19312;SDS011;9791;50.820;4.406;2023-07-16T12:46:07;6.78;;;2.67;;
19312;SDS011;9791;50.820;4.406;2023-07-16T12:48:34;7.63;;;2.97;;
19312;SDS011;9791;50.820;4.406;2023-07-16T12:51:00;7.28;;;3.25;;
19312;SDS011;9791;50.820;4.406;2023-07-16T12:53:26;7.18;;;3.08;;
19312;SDS011;9791;50.820;4.406;2023-07-16T12:55:52;9.63;;;3.20;;
19312;SDS011;9791;50.820;4.406;2023-07-16T12:58:18;7.03;;;3.10;;
19312;SDS011;9791;50.820;4.406;2023-07-16T13:00:45;7.43;;;3.10;;
19312;SDS011;9791;50.820;4.406;2023-07-16T13:03:11;6.45;;;3.20;;
19312;SDS011;9791;50.820;4.406;2023-07-16T13:05:39;10.25;;;3.88;;
19312;SDS011;9791;50.820;4.406;2023-07-16T13:08:05;7.90;;;3.63;;
19312;SDS011;9791;50.820;4.406;2023-07-16T13:10:31;10.52;;;3.25;;
19312;SDS011;9791;50.820;4.406;2023-07-16T13:12:57;7.82;;;3.42;;
19312;SDS011;9791;50.820;4.406;2023-07-16T13:15:23;8.50;;;3.40;;
19312;SDS011;9791;50.820;4.406;2023-07-16T13:17:49;5.35;;;2.80;;
19312;SDS011;9791;50.820;4.406;2023-07-16T13:20:16;7.30;;;2.80;;
19312;SDS011;9791;50.820;4.406;2023-07-16T13:22:43;5.60;;;2.80;;
19312;SDS011;9791;50.820;4.406;2023-07-16T13:25:09;8.32;;;3.22;;
19312;SDS011;9791;50.820;4.406;2023-07-16T13:27:37;5.10;;;2.60;;
19312;SDS011;9791;50.820;4.406;2023-07-16T13:30:03;6.85;;;3.17;;
19312;SDS011;9791;50.820;4.406;2023-07-16T13:32:29;6.78;;;2.80;;
19312;SDS011;9791;50.820;4.406;2023-07-16T13:34:55;8.40;;;2.80;;
19312;SDS011;9791;50.820;4.406;2023-07-16T13:37:21;9.20;;;3.30;;
19312;SDS011;9791;50.820;4.406;2023-07-16T13:39:47;8.02;;;2.95;;
19312;SDS011;9791;50.820;4.406;2023-07-16T13:42:13;6.93;;;2.80;;
19312;SDS011;9791;50.820;4.406;2023-07-16T13:44:39;7.95;;;2.83;;
19312;SDS011;9791;50.820;4.406;2023-07-16T13:47:05;5.18;;;2.50;;
19312;SDS011;9791;50.820;4.406;2023-07-16T13:49:31;5.70;;;2.60;;
19312;SDS011;9791;50.820;4.406;2023-07-16T13:51:57;7.68;;;3.03;;
19312;SDS011;9791;50.820;4.406;2023-07-16T13:54:23;5.93;;;2.58;;
19312;SDS011;9791;50.820;4.406;2023-07-16T13:56:49;6.35;;;2.70;;
19312;SDS011;9791;50.820;4.406;2023-07-16T13:59:15;4.82;;;2.00;;
19312;SDS011;9791;50.820;4.406;2023-07-16T14:01:41;6.90;;;2.08;;
19312;SDS011;9791;50.820;4.406;2023-07-16T14:04:08;6.70;;;2.22;;
19312;SDS011;9791;50.820;4.406;2023-07-16T14:06:34;6.55;;;2.33;;
19312;SDS011;9791;50.820;4.406;2023-07-16T14:09:00;4.75;;;1.88;;
19312;SDS011;9791;50.820;4.406;2023-07-16T14:11:26;5.63;;;2.45;;
19312;SDS011;9791;50.820;4.406;2023-07-16T14:13:52;6.10;;;1.92;;
19312;SDS011;9791;50.820;4.406;2023-07-16T14:16:19;6.57;;;2.33;;
19312;SDS011;9791;50.820;4.406;2023-07-16T14:18:45;5.78;;;2.47;;
19312;SDS011;9791;50.820;4.406;2023-07-16T14:21:11;7.53;;;2.50;;
19312;SDS011;9791;50.820;4.406;2023-07-16T14:23:37;5.35;;;2.30;;
19312;SDS011;9791;50.820;4.406;2023-07-16T14:26:03;6.20;;;2.65;;
19312;SDS011;9791;50.820;4.406;2023-07-16T14:28:29;6.07;;;2.60;;
19312;SDS011;9791;50.820;4.406;2023-07-16T14:30:56;6.28;;;2.50;;
19312;SDS011;9791;50.820;4.406;2023-07-16T14:33:22;6.78;;;2.80;;
19312;SDS011;9791;50.820;4.406;2023-07-16T14:35:48;5.15;;;2.22;;
19312;SDS011;9791;50.820;4.406;2023-07-16T14:38:14;8.48;;;2.80;;
19312;SDS011;9791;50.820;4.406;2023-07-16T14:40:40;8.10;;;3.00;;
19312;SDS011;9791;50.820;4.406;2023-07-16T14:43:07;5.40;;;2.50;;
19312;SDS011;9791;50.820;4.406;2023-07-16T14:45:36;6.38;;;2.50;;
19312;SDS011;9791;50.820;4.406;2023-07-16T14:48:03;6.68;;;2.60;;
19312;SDS011;9791;50.820;4.406;2023-07-16T14:50:30;5.38;;;2.42;;
19312;SDS011;9791;50.820;4.406;2023-07-16T14:52:56;8.25;;;2.65;;
19312;SDS011;9791;50.820;4.406;2023-07-16T14:55:22;4.40;;;1.95;;
19312;SDS011;9791;50.820;4.406;2023-07-16T14:57:48;5.82;;;2.25;;
19312;SDS011;9791;50.820;4.406;2023-07-16T15:00:14;6.38;;;2.63;;